createdAt,value
2023-11-01T00:00:39.473Z,99376.60
2023-11-01T00:03:40.204Z,99384.31
2023-11-01T00:06:30.379Z,99385.30
2023-11-01T00:09:14.739Z,99388.80
2023-11-01T00:12:06.540Z,99389.77
2023-11-01T00:15:02.865Z,99392.05
2023-11-01T00:17:48.028Z,99394.27
2023-11-01T00:20:46.602Z,99397.42
2023-11-01T00:23:25.852Z,99400.16
2023-11-01T00:26:37.403Z,99401.10
2023-11-01T00:29:30.868Z,99401.16
2023-11-01T00:32:37.571Z,99407.48
2023-11-01T00:35:24.532Z,99408.18
2023-11-01T00:38:37.280Z,99408.74
2023-11-01T00:41:19.844Z,99414.33
2023-11-01T00:44:30.264Z,99414.39
2023-11-01T00:47:21.374Z,99417.04
2023-11-01T00:50:07.916Z,99420.11
2023-11-01T00:53:18.686Z,99419.46
2023-11-01T00:56:03.407Z,99425.20
2023-11-01T00:58:52.944Z,99430.17
2023-11-01T01:01:41.924Z,99432.11
2023-11-01T01:04:23.931Z,99436.88
2023-11-01T01:07:35.097Z,99444.75
2023-11-01T01:10:38.984Z,99445.77
2023-11-01T01:13:23.458Z,99444.65
2023-11-01T01:16:04.749Z,99443.06
2023-11-01T01:18:49.700Z,99445.75
2023-11-01T01:21:30.906Z,99445.58
2023-11-01T01:24:30.120Z,99449.78
2023-11-01T01:30:19.734Z,99453.14
2023-11-01T01:33:17.152Z,99457.93
2023-11-01T01:36:09.382Z,99460.61
2023-11-01T01:39:06.057Z,99458.23
2023-11-01T01:42:03.788Z,99458.45
2023-11-01T01:44:58.980Z,99459.87
2023-11-01T01:47:35.891Z,99462.67
2023-11-01T01:50:56.282Z,99464.67
2023-11-01T01:54:01.206Z,99470.19
2023-11-01T01:56:54.769Z,99473.42
2023-11-01T01:59:36.649Z,99471.13
2023-11-01T02:02:13.326Z,99474.72
2023-11-01T02:04:52.646Z,99482.64
2023-11-01T02:07:28.397Z,99488.24
2023-11-01T02:10:17.702Z,99491.81
2023-11-01T02:13:11.781Z,99496.77
2023-11-01T02:15:50.742Z,99502.98
2023-11-01T02:18:29.043Z,99507.21
2023-11-01T02:21:24.848Z,99508.65
2023-11-01T02:24:14.941Z,99509.14
2023-11-01T02:26:54.371Z,99495.26
2023-11-01T02:29:52.945Z,99513.73
2023-11-01T02:32:34.600Z,99518.05
2023-11-01T02:35:34.129Z,99519.02
2023-11-01T02:38:16.803Z,99522.85
2023-11-01T02:41:34.008Z,99523.16
2023-11-01T02:44:29.243Z,99522.26
2023-11-01T02:47:13.289Z,99523.92
2023-11-01T02:49:56.270Z,99524.95
2023-11-01T02:53:00.184Z,99532.12
2023-11-01T02:55:38.945Z,99532.79
2023-11-01T02:58:28.302Z,99533.55
2023-11-01T03:01:02.077Z,99531.95
2023-11-01T03:03:35.058Z,99531.73
2023-11-01T03:06:18.847Z,99534.51
2023-11-01T03:09:12.786Z,99535.60
2023-11-01T03:11:55.946Z,99536.66
2023-11-01T03:14:34.386Z,99536.81
2023-11-01T03:17:19.016Z,99537.88
2023-11-01T03:20:05.849Z,99545.13
2023-11-01T03:22:54.847Z,99547.66
2023-11-01T03:25:39.134Z,99545.60
2023-11-01T03:28:40.037Z,99548.86
2023-11-01T03:31:27.564Z,99550.40
2023-11-01T03:34:29.938Z,99551.08
2023-11-01T03:37:22.010Z,99559.04
2023-11-01T03:40:14.248Z,99564.43
2023-11-01T03:45:58.470Z,99566.11
2023-11-01T03:49:09.757Z,99567.31
2023-11-01T03:51:50.937Z,99568.92
2023-11-01T03:54:38.450Z,99568.54
2023-11-01T03:57:31.872Z,99572.84
2023-11-01T04:00:25.417Z,99578.90
2023-11-01T04:03:05.460Z,99577.87
2023-11-01T04:09:00.338Z,99583.38
2023-11-01T04:11:51.440Z,99574.61
2023-11-01T04:14:46.063Z,99590.99
2023-11-01T04:18:20.330Z,99593.56
2023-11-01T04:20:58.373Z,99597.58
2023-11-01T04:23:40.410Z,99603.39
2023-11-01T04:26:26.412Z,99603.80
2023-11-01T04:29:01.306Z,99604.47
2023-11-01T04:31:44.982Z,99611.36
2023-11-01T04:34:34.241Z,99611.24
2023-11-01T04:37:17.073Z,99611.61
2023-11-01T04:40:35.548Z,99609.31
2023-11-01T04:43:13.615Z,99615.73
2023-11-01T04:46:02.644Z,99616.84
2023-11-01T04:48:52.350Z,99619.83
2023-11-01T04:51:38.478Z,99625.52
2023-11-01T04:54:35.074Z,99624.97
2023-11-01T04:57:17.380Z,99619.77
2023-11-01T04:59:59.225Z,99619.13
2023-11-01T05:02:46.693Z,99624.19
2023-11-01T05:05:22.161Z,99627.17
2023-11-01T05:08:12.752Z,99626.79
2023-11-01T05:10:50.655Z,99625.05
2023-11-01T05:13:40.848Z,99629.76
2023-11-01T05:16:18.201Z,99635.09
2023-11-01T05:19:10.951Z,99639.31
2023-11-01T05:21:51.321Z,99644.77
2023-11-01T05:24:35.681Z,99644.44
2023-11-01T05:27:26.461Z,99645.46
2023-11-01T05:31:03.815Z,99650.47
2023-11-01T05:34:41.651Z,99649.27
2023-11-01T05:37:53.468Z,99655.56
2023-11-01T05:41:16.033Z,99659.30
2023-11-01T05:44:02.515Z,99659.17
2023-11-01T05:46:49.985Z,99663.75
2023-11-01T05:49:59.581Z,99668.36
2023-11-01T05:52:43.463Z,99674.21
2023-11-01T05:55:26.454Z,99677.70
2023-11-01T05:58:24.579Z,99686.33
2023-11-01T06:01:29.918Z,99693.05
2023-11-01T06:04:13.186Z,99697.14
2023-11-01T06:07:00.694Z,99697.71
2023-11-01T06:09:38.487Z,99697.08
2023-11-01T06:12:16.949Z,99698.77
2023-11-01T06:14:57.171Z,99699.36
2023-11-01T06:17:54.329Z,99700.20
2023-11-01T06:20:41.784Z,99706.28
2023-11-01T06:23:22.578Z,99710.37
2023-11-01T06:26:30.138Z,99712.83
2023-11-01T06:29:46.285Z,99712.48
2023-11-01T06:32:32.722Z,99712.60
2023-11-01T06:35:15.114Z,99712.59
2023-11-01T06:37:48.007Z,99716.76
2023-11-01T06:40:27.942Z,99717.14
2023-11-01T06:43:03.796Z,99713.39
2023-11-01T06:45:43.538Z,99724.41
2023-11-01T06:48:27.207Z,99731.03
2023-11-01T06:51:16.311Z,99735.11
2023-11-01T06:53:53.208Z,99731.13
2023-11-01T06:56:52.478Z,99730.41
2023-11-01T06:59:44.748Z,99722.73
2023-11-01T07:02:20.523Z,99723.95
2023-11-01T07:05:25.061Z,99724.18
2023-11-01T07:08:20.719Z,99723.71
2023-11-01T07:10:59.602Z,99726.17
2023-11-01T07:13:56.315Z,99723.57
2023-11-01T07:17:01.636Z,99726.80
2023-11-01T07:19:39.070Z,99725.13
2023-11-01T07:22:31.130Z,99728.33
2023-11-01T07:25:06.169Z,99729.75
2023-11-01T07:27:41.651Z,99730.16
2023-11-01T07:30:28.667Z,99726.29
2023-11-01T07:33:17.705Z,99723.77
2023-11-01T07:36:05.934Z,99723.22
2023-11-01T07:38:42.467Z,99722.20
2023-11-01T07:41:35.000Z,99724.28
2023-11-01T07:44:15.165Z,99726.45
2023-11-01T07:46:49.385Z,99727.60
2023-11-01T07:49:27.953Z,99728.01
2023-11-01T07:52:16.421Z,99728.16
2023-11-01T07:54:50.960Z,99726.48
2023-11-01T07:57:25.972Z,99728.67
2023-11-01T08:00:09.814Z,99733.25
2023-11-01T08:03:01.547Z,99734.85
2023-11-01T08:05:45.768Z,99740.66
2023-11-01T08:08:22.045Z,99743.64
2023-11-01T08:11:18.808Z,99747.02
2023-11-01T08:13:52.905Z,99755.39
2023-11-01T08:16:30.647Z,99750.58
2023-11-01T08:19:12.421Z,99749.50
2023-11-01T08:21:55.498Z,99749.89
2023-11-01T08:24:39.134Z,99752.81
2023-11-01T08:27:16.142Z,99755.88
2023-11-01T08:29:50.287Z,99760.61
2023-11-01T08:32:21.655Z,99763.89
2023-11-01T08:35:03.000Z,99765.91
2023-11-01T08:37:43.960Z,99766.97
2023-11-01T08:43:07.774Z,99772.58
2023-11-01T08:45:43.689Z,99774.36
2023-11-01T08:48:47.832Z,99773.63
2023-11-01T08:51:31.842Z,99774.84
2023-11-01T08:54:11.573Z,99775.11
2023-11-01T08:56:57.029Z,99771.98
2023-11-01T08:59:40.164Z,99771.66
2023-11-01T09:02:19.722Z,99773.69
2023-11-01T09:05:12.028Z,99774.96
2023-11-01T09:07:50.902Z,99775.86
2023-11-01T09:10:34.745Z,99775.02
2023-11-01T09:13:26.397Z,99776.05
2023-11-01T09:16:11.127Z,99783.86
2023-11-01T09:18:46.105Z,99789.55
2023-11-01T09:21:24.929Z,99791.56
2023-11-01T09:24:18.473Z,99785.05
2023-11-01T09:26:56.455Z,99783.38
2023-11-01T09:29:42.432Z,99778.15
2023-11-01T09:32:18.961Z,99762.21
2023-11-01T09:35:46.548Z,99761.39
2023-11-01T09:38:36.580Z,99775.63
2023-11-01T09:42:36.821Z,99774.31
2023-11-01T09:50:59.742Z,99774.60
2023-11-01T09:54:03.831Z,99771.23
2023-11-01T09:56:44.654Z,99768.21
2023-11-01T09:59:14.620Z,99766.70
2023-11-01T10:05:08.372Z,99764.64
2023-11-01T10:07:43.359Z,99759.67
2023-11-01T10:10:30.786Z,99756.67
2023-11-01T10:13:11.875Z,99763.02
2023-11-01T10:15:54.732Z,99766.29
2023-11-01T10:18:33.144Z,99770.98
2023-11-01T10:21:09.417Z,99769.66
2023-11-01T10:23:52.323Z,99768.56
2023-11-01T10:26:32.505Z,99764.01
2023-11-01T10:29:18.310Z,99761.21
2023-11-01T10:32:04.388Z,99758.77
2023-11-01T10:34:50.580Z,99756.40
2023-11-01T10:37:33.914Z,99754.13
2023-11-01T10:40:16.287Z,99758.61
2023-11-01T10:43:13.193Z,99756.66
2023-11-01T10:46:02.790Z,99759.89
2023-11-01T10:48:59.611Z,99756.00
2023-11-01T10:51:44.245Z,99753.27
2023-11-01T10:54:25.591Z,99748.69
2023-11-01T10:57:24.893Z,99741.60
2023-11-01T11:00:09.619Z,99739.61
2023-11-01T11:03:04.919Z,99737.98
2023-11-01T11:05:58.890Z,99737.67
2023-11-01T11:09:25.452Z,99736.10
2023-11-01T11:12:28.918Z,99739.34
2023-11-01T11:15:20.927Z,99733.96
2023-11-01T11:18:27.666Z,99733.00
2023-11-01T11:21:07.909Z,99736.92
2023-11-01T11:24:59.460Z,99734.44
2023-11-01T11:31:19.920Z,99731.45
2023-11-01T11:34:20.040Z,99728.09
2023-11-01T11:37:32.379Z,99724.21
2023-11-01T11:40:15.429Z,99723.66
2023-11-01T11:43:16.213Z,99728.63
2023-11-01T11:46:18.826Z,99721.31
2023-11-01T11:49:01.194Z,99723.67
2023-11-01T11:51:40.115Z,99721.17
2023-11-01T11:54:38.513Z,99718.61
2023-11-01T11:57:17.889Z,99713.00
2023-11-01T12:00:25.261Z,99710.25
2023-11-01T12:03:50.004Z,99708.38
2023-11-01T12:07:09.417Z,99696.77
2023-11-01T12:10:04.329Z,99705.58
2023-11-01T12:13:36.966Z,99706.23
2023-11-01T12:16:46.990Z,99696.81
2023-11-01T12:19:46.077Z,99694.50
2023-11-01T12:22:58.686Z,99690.42
2023-11-01T12:25:31.474Z,99688.20
2023-11-01T12:28:31.560Z,99686.96
2023-11-01T12:31:31.999Z,99687.44
2023-11-01T12:34:31.928Z,99682.34
2023-11-01T12:37:25.527Z,99682.11
2023-11-01T12:43:28.417Z,99677.12
2023-11-01T12:46:27.800Z,99673.73
2023-11-01T12:49:16.762Z,99671.80
2023-11-01T12:52:15.859Z,99669.05
2023-11-01T12:55:17.484Z,99665.73
2023-11-01T12:58:09.259Z,99666.57
2023-11-01T13:00:57.936Z,99667.80
2023-11-01T13:06:50.439Z,99668.53
2023-11-01T13:09:36.187Z,99674.05
2023-11-01T13:12:10.311Z,99676.48
2023-11-01T13:14:46.309Z,99672.63
2023-11-01T13:17:16.798Z,99676.70
2023-11-01T13:20:00.969Z,99671.75
2023-11-01T13:23:10.538Z,99666.66
2023-11-01T13:25:55.169Z,99660.88
2023-11-01T13:28:34.653Z,99659.88
2023-11-01T13:31:11.641Z,99665.03
2023-11-01T13:33:42.475Z,99673.17
2023-11-01T13:36:22.937Z,99671.42
2023-11-01T13:38:59.310Z,99674.48
2023-11-01T13:41:52.263Z,99678.15
2023-11-01T13:44:33.193Z,99678.22
2023-11-01T13:47:13.136Z,99676.80
2023-11-01T13:49:48.449Z,99674.80
2023-11-01T13:52:58.922Z,99673.27
2023-11-01T13:55:40.314Z,99670.36
2023-11-01T13:58:32.025Z,99666.36
2023-11-01T14:01:13.390Z,99661.84
2023-11-01T14:03:59.702Z,99659.44
2023-11-01T14:06:32.724Z,99652.77
2023-11-01T14:09:32.816Z,99649.21
2023-11-01T14:12:26.606Z,99645.74
2023-11-01T14:15:45.524Z,99644.42
2023-11-01T14:18:20.907Z,99638.63
2023-11-01T14:20:57.364Z,99612.45
2023-11-01T14:23:50.361Z,99626.79
2023-11-01T14:26:39.294Z,99632.02
2023-11-01T14:29:17.436Z,99632.12
2023-11-01T14:31:55.355Z,99635.92
2023-11-01T14:34:37.676Z,99632.05
2023-11-01T14:37:13.384Z,99626.12
2023-11-01T14:39:56.531Z,99625.26
2023-11-01T14:42:33.190Z,99624.85
2023-11-01T14:45:08.028Z,99620.55
2023-11-01T14:47:40.507Z,99622.57
2023-11-01T14:50:12.743Z,99621.29
2023-11-01T14:52:43.963Z,99616.32
2023-11-01T14:55:17.706Z,99607.79
2023-11-01T14:57:50.462Z,99610.59
2023-11-01T15:00:36.998Z,99608.36
2023-11-01T15:03:20.521Z,99607.97
2023-11-01T15:05:59.748Z,99609.64
2023-11-01T15:08:34.249Z,99612.64
2023-11-01T15:11:15.931Z,99606.19
2023-11-01T15:14:00.296Z,99601.14
2023-11-01T15:16:39.052Z,99603.63
2023-11-01T15:19:17.253Z,99604.99
2023-11-01T15:22:08.123Z,99603.86
2023-11-01T15:25:02.776Z,99601.42
2023-11-01T15:27:46.759Z,99599.73
2023-11-01T15:30:46.335Z,99596.91
2023-11-01T15:33:52.828Z,99593.69
2023-11-01T15:36:37.821Z,99592.00
2023-11-01T15:39:35.838Z,99593.73
2023-11-01T15:42:22.250Z,99594.40
2023-11-01T15:45:05.730Z,99594.82
2023-11-01T15:47:44.450Z,99592.66
2023-11-01T15:50:21.898Z,99598.02
2023-11-01T15:53:17.102Z,99594.13
2023-11-01T15:55:58.025Z,99592.05
2023-11-01T15:58:46.644Z,99595.44
2023-11-01T16:01:29.723Z,99593.89
2023-11-01T16:04:11.461Z,99591.20
2023-11-01T16:06:57.138Z,99589.80
2023-11-01T16:09:30.069Z,99587.07
2023-11-01T16:12:06.532Z,99582.11
2023-11-01T16:14:41.301Z,99586.95
2023-11-01T16:17:12.732Z,99593.15
2023-11-01T16:19:48.172Z,99588.63
2023-11-01T16:22:27.513Z,99588.36
2023-11-01T16:25:05.260Z,99583.31
2023-11-01T16:27:36.441Z,99579.95
2023-11-01T16:30:09.891Z,99584.31
2023-11-01T16:32:44.312Z,99582.86
2023-11-01T16:35:22.967Z,99583.27
2023-11-01T16:37:55.395Z,99587.98
2023-11-01T16:40:28.726Z,99587.42
2023-11-01T16:43:03.510Z,99586.58
2023-11-01T16:45:40.920Z,99583.55
2023-11-01T16:48:21.343Z,99586.77
2023-11-01T16:50:55.507Z,99587.16
2023-11-01T16:53:32.764Z,99586.09
2023-11-01T16:56:23.354Z,99585.69
2023-11-01T16:58:57.982Z,99584.12
2023-11-01T17:01:42.481Z,99581.48
2023-11-01T17:04:14.424Z,99580.34
2023-11-01T17:06:47.440Z,99578.73
2023-11-01T17:09:17.679Z,99579.18
2023-11-01T17:11:50.821Z,99585.20
2023-11-01T17:14:25.256Z,99584.05
2023-11-01T17:17:06.860Z,99583.03
2023-11-01T17:19:56.523Z,99579.59
2023-11-01T17:22:47.608Z,99580.13
2023-11-01T17:25:45.961Z,99581.73
2023-11-01T17:29:22.128Z,99580.26
2023-11-01T17:32:24.045Z,99582.67
2023-11-01T17:35:09.742Z,99581.48
2023-11-01T17:37:56.628Z,99577.59
2023-11-01T17:40:33.521Z,99575.45
2023-11-01T17:43:16.594Z,99576.26
2023-11-01T17:45:51.005Z,99575.48
2023-11-01T17:48:42.132Z,99576.31
2023-11-01T17:51:18.654Z,99574.35
2023-11-01T17:53:56.656Z,99572.46
2023-11-01T17:56:43.130Z,99568.20
2023-11-01T17:59:37.840Z,99564.77
2023-11-01T18:02:32.702Z,99561.77
2023-11-01T18:06:01.986Z,99561.61
2023-11-01T18:08:55.245Z,99557.36
2023-11-01T18:11:47.752Z,99557.54
2023-11-01T18:15:03.645Z,99558.80
2023-11-01T18:18:10.220Z,99556.20
2023-11-01T18:21:42.185Z,99557.35
2023-11-01T18:25:19.351Z,99551.96
2023-11-01T18:28:42.556Z,99548.41
2023-11-01T18:31:46.432Z,99545.67
2023-11-01T18:34:59.203Z,99544.03
2023-11-01T18:41:05.516Z,99546.09
2023-11-01T18:44:03.931Z,99542.75
2023-11-01T18:47:35.459Z,99543.25
2023-11-01T18:50:42.179Z,99538.73
2023-11-01T18:53:44.874Z,99538.70
2023-11-01T18:56:59.389Z,99535.88
2023-11-01T19:03:18.435Z,99524.86
2023-11-01T19:06:01.091Z,99532.17
2023-11-01T19:08:54.894Z,99531.50
2023-11-01T19:11:48.266Z,99529.71
2023-11-01T19:14:54.296Z,99529.91
2023-11-01T19:17:41.859Z,99532.09
2023-11-01T19:20:33.847Z,99534.98
2023-11-01T19:23:42.307Z,99532.54
2023-11-01T19:27:12.566Z,99527.81
2023-11-01T19:29:59.729Z,99527.36
2023-11-01T19:33:22.950Z,99526.73
2023-11-01T19:36:18.717Z,99526.93
2023-11-01T19:39:28.102Z,99527.40
2023-11-01T19:42:10.519Z,99523.96
2023-11-01T19:45:09.189Z,99520.53
2023-11-01T19:51:26.400Z,99515.93
2023-11-01T19:54:28.509Z,99514.71
2023-11-01T19:57:15.377Z,99518.80
2023-11-01T20:00:50.517Z,99517.12
2023-11-01T20:03:33.505Z,99517.05
2023-11-01T20:06:12.286Z,99509.70
2023-11-01T20:09:09.171Z,99510.92
2023-11-01T20:12:00.529Z,99510.54
2023-11-01T20:14:57.878Z,99509.84
2023-11-01T20:18:06.332Z,99508.15
2023-11-01T20:21:06.098Z,99502.77
2023-11-01T20:23:58.024Z,99499.42
2023-11-01T20:26:37.946Z,99497.63
2023-11-01T20:29:38.965Z,99492.58
2023-11-01T20:32:27.408Z,99485.21
2023-11-01T20:35:10.271Z,99480.01
2023-11-01T20:38:01.280Z,99475.47
2023-11-01T20:40:48.054Z,99472.96
2023-11-01T20:43:33.104Z,99473.50
2023-11-01T20:46:43.807Z,99472.14
2023-11-01T20:49:44.426Z,99466.91
2023-11-01T20:52:44.217Z,99467.77
2023-11-01T20:55:37.055Z,99466.48
2023-11-01T20:58:52.446Z,99465.52
2023-11-01T21:01:42.338Z,99462.65
2023-11-01T21:04:24.680Z,99464.70
2023-11-01T21:07:08.983Z,99461.46
2023-11-01T21:09:45.197Z,99456.02
2023-11-01T21:12:20.487Z,99445.27
2023-11-01T21:14:56.136Z,99460.77
2023-11-01T21:17:29.506Z,99460.02
2023-11-01T21:25:33.454Z,99452.09
2023-11-01T21:28:18.974Z,99449.45
2023-11-01T21:31:04.385Z,99446.10
2023-11-01T21:33:40.568Z,99441.74
2023-11-01T21:36:43.330Z,99438.12
2023-11-01T21:39:32.324Z,99438.79
2023-11-01T21:42:11.118Z,99437.86
2023-11-01T21:44:55.649Z,99434.96
2023-11-01T21:47:42.430Z,99434.30
2023-11-01T21:50:32.264Z,99432.48
2023-11-01T21:53:47.338Z,99431.08
2023-11-01T21:56:37.198Z,99427.34
2023-11-01T21:59:30.897Z,99425.34
2023-11-01T22:03:13.111Z,99427.75
2023-11-01T22:06:13.494Z,99422.33
2023-11-01T22:09:07.488Z,99419.27
2023-11-01T22:11:55.823Z,99417.33
2023-11-01T22:14:41.451Z,99411.98
2023-11-01T22:17:59.379Z,99413.97
2023-11-01T22:20:43.140Z,99413.38
2023-11-01T22:23:18.280Z,99407.98
2023-11-01T22:26:10.656Z,99391.63
2023-11-01T22:28:44.674Z,99397.27
2023-11-01T22:32:33.485Z,99395.48
2023-11-01T22:35:42.084Z,99395.59
2023-11-01T22:38:34.254Z,99394.86
2023-11-01T22:41:15.997Z,99396.97
2023-11-01T22:44:08.020Z,99383.16
2023-11-01T22:46:45.131Z,99402.33
2023-11-01T22:49:31.282Z,99399.56
2023-11-01T22:52:02.180Z,99400.29
2023-11-01T22:54:49.973Z,99393.37
2023-11-01T22:57:26.717Z,99394.11
2023-11-01T23:00:15.216Z,99387.77
2023-11-01T23:02:56.032Z,99388.14
2023-11-01T23:08:40.492Z,99376.10
2023-11-01T23:11:17.637Z,99373.14
2023-11-01T23:14:04.165Z,99377.42
2023-11-01T23:16:54.807Z,99381.91
2023-11-01T23:19:37.343Z,99378.81
2023-11-01T23:22:21.538Z,99380.02
2023-11-01T23:25:00.276Z,99380.52
2023-11-01T23:27:43.365Z,99377.55
2023-11-01T23:31:08.401Z,99374.30
2023-11-01T23:33:59.398Z,99368.88
2023-11-01T23:37:05.693Z,99365.59
2023-11-01T23:39:49.174Z,99359.80
2023-11-01T23:42:29.578Z,99355.86
2023-11-01T23:45:41.944Z,99350.20
2023-11-01T23:48:21.199Z,99345.34
2023-11-01T23:51:02.999Z,99344.31
2023-11-01T23:53:41.657Z,99347.93
2023-11-01T23:56:30.611Z,99345.82
2023-11-01T23:59:07.900Z,99347.40
